sensor_id;sensor_type;location;lat;lon;timestamp;pressure;altitude;pressure_sealevel;temperature;humidity
32197;BME280;18697;42.770;23.400;2022-08-01T00:00:18;95517.44;;;24.54;53.42
32197;BME280;18697;42.770;23.400;2022-08-01T00:02:43;95514.03;;;24.56;53.47
32197;BME280;18697;42.770;23.400;2022-08-01T00:05:09;95517.25;;;24.52;53.49
32197;BME280;18697;42.770;23.400;2022-08-01T00:07:36;95510.94;;;24.10;54.31
32197;BME280;18697;42.770;23.400;2022-08-01T00:10:03;95521.63;;;24.25;54.58
32197;BME280;18697;42.770;23.400;2022-08-01T00:12:29;95527.84;;;24.23;54.04
32197;BME280;18697;42.770;23.400;2022-08-01T00:14:55;95517.81;;;24.22;54.78
32197;BME280;18697;42.770;23.400;2022-08-01T00:17:20;95530.22;;;24.33;54.65
32197;BME280;18697;42.770;23.400;2022-08-01T00:19:45;95521.50;;;24.31;54.26
32197;BME280;18697;42.770;23.400;2022-08-01T00:22:11;95513.38;;;24.35;54.09
32197;BME280;18697;42.770;23.400;2022-08-01T00:24:36;95517.38;;;24.39;54.18
32197;BME280;18697;42.770;23.400;2022-08-01T00:27:02;95510.03;;;24.44;54.24
32197;BME280;18697;42.770;23.400;2022-08-01T00:29:27;95506.44;;;24.43;53.97
32197;BME280;18697;42.770;23.400;2022-08-01T00:31:52;95508.72;;;24.45;54.07
32197;BME280;18697;42.770;23.400;2022-08-01T00:34:18;95503.81;;;24.45;53.98
32197;BME280;18697;42.770;23.400;2022-08-01T00:36:43;95498.28;;;24.40;54.23
32197;BME280;18697;42.770;23.400;2022-08-01T00:39:09;95507.56;;;24.40;53.92
32197;BME280;18697;42.770;23.400;2022-08-01T00:41:34;95495.69;;;24.21;54.64
32197;BME280;18697;42.770;23.400;2022-08-01T00:44:04;95499.22;;;24.14;54.57
32197;BME280;18697;42.770;23.400;2022-08-01T00:46:30;95486.78;;;23.88;55.17
32197;BME280;18697;42.770;23.400;2022-08-01T00:48:56;95493.25;;;23.97;55.25
32197;BME280;18697;42.770;23.400;2022-08-01T00:51:22;95496.28;;;23.99;55.14
32197;BME280;18697;42.770;23.400;2022-08-01T00:53:50;95491.69;;;23.05;56.59
32197;BME280;18697;42.770;23.400;2022-08-01T00:56:16;95491.03;;;23.33;56.44
32197;BME280;18697;42.770;23.400;2022-08-01T00:58:41;95491.94;;;23.48;56.99
32197;BME280;18697;42.770;23.400;2022-08-01T01:01:07;95484.59;;;23.53;56.25
32197;BME280;18697;42.770;23.400;2022-08-01T01:03:33;95487.44;;;23.74;55.85
32197;BME280;18697;42.770;23.400;2022-08-01T01:06:36;95486.72;;;23.81;55.77
32197;BME280;18697;42.770;23.400;2022-08-01T01:14:44;95487.13;;;24.13;54.75
32197;BME280;18697;42.770;23.400;2022-08-01T01:17:18;95478.00;;;24.07;54.59
32197;BME280;18697;42.770;23.400;2022-08-01T01:19:48;95487.63;;;24.04;54.80
32197;BME280;18697;42.770;23.400;2022-08-01T01:25:08;95482.78;;;24.12;54.20
32197;BME280;18697;42.770;23.400;2022-08-01T01:30:19;95482.88;;;23.99;54.06
32197;BME280;18697;42.770;23.400;2022-08-01T01:32:48;95489.72;;;24.04;54.25
32197;BME280;18697;42.770;23.400;2022-08-01T01:35:23;95485.72;;;23.99;54.70
32197;BME280;18697;42.770;23.400;2022-08-01T01:37:53;95471.78;;;23.80;54.82
32197;BME280;18697;42.770;23.400;2022-08-01T01:40:21;95478.81;;;23.87;54.88
32197;BME280;18697;42.770;23.400;2022-08-01T01:42:50;95470.81;;;23.78;54.61
32197;BME280;18697;42.770;23.400;2022-08-01T01:45:17;95471.56;;;23.78;55.09
32197;BME280;18697;42.770;23.400;2022-08-01T01:47:43;95466.63;;;23.71;54.49
32197;BME280;18697;42.770;23.400;2022-08-01T01:50:11;95461.16;;;23.73;54.84
32197;BME280;18697;42.770;23.400;2022-08-01T01:52:39;95465.19;;;23.85;54.71
32197;BME280;18697;42.770;23.400;2022-08-01T01:55:07;95456.19;;;23.95;54.66
32197;BME280;18697;42.770;23.400;2022-08-01T01:57:37;95452.38;;;23.92;54.57
32197;BME280;18697;42.770;23.400;2022-08-01T02:00:04;95454.25;;;23.89;54.46
32197;BME280;18697;42.770;23.400;2022-08-01T02:02:32;95459.16;;;23.89;53.65
32197;BME280;18697;42.770;23.400;2022-08-01T02:04:59;95452.88;;;23.75;53.76
32197;BME280;18697;42.770;23.400;2022-08-01T02:07:25;95462.69;;;23.74;54.35
32197;BME280;18697;42.770;23.400;2022-08-01T02:09:54;95457.88;;;23.62;54.05
32197;BME280;18697;42.770;23.400;2022-08-01T02:12:20;95454.75;;;23.52;54.64
32197;BME280;18697;42.770;23.400;2022-08-01T02:14:52;95456.97;;;23.46;55.22
32197;BME280;18697;42.770;23.400;2022-08-01T02:17:20;95453.56;;;23.26;55.08
32197;BME280;18697;42.770;23.400;2022-08-01T02:19:46;95453.84;;;23.15;55.11
32197;BME280;18697;42.770;23.400;2022-08-01T02:22:27;95458.47;;;23.05;55.72
32197;BME280;18697;42.770;23.400;2022-08-01T02:27:30;95463.81;;;22.75;55.97
32197;BME280;18697;42.770;23.400;2022-08-01T02:30:02;95460.50;;;22.50;57.40
32197;BME280;18697;42.770;23.400;2022-08-01T02:32:43;95459.97;;;22.51;57.04
32197;BME280;18697;42.770;23.400;2022-08-01T02:35:25;95458.06;;;22.67;57.10
32197;BME280;18697;42.770;23.400;2022-08-01T02:37:52;95465.25;;;22.81;57.19
32197;BME280;18697;42.770;23.400;2022-08-01T02:40:19;95468.56;;;22.93;56.63
32197;BME280;18697;42.770;23.400;2022-08-01T02:42:47;95457.66;;;22.97;55.86
32197;BME280;18697;42.770;23.400;2022-08-01T02:45:17;95454.41;;;23.14;55.54
32197;BME280;18697;42.770;23.400;2022-08-01T02:47:44;95450.31;;;23.22;55.53
32197;BME280;18697;42.770;23.400;2022-08-01T02:50:12;95449.22;;;23.25;55.20
32197;BME280;18697;42.770;23.400;2022-08-01T02:52:41;95444.38;;;23.34;54.45
32197;BME280;18697;42.770;23.400;2022-08-01T02:55:08;95443.16;;;23.21;54.36
32197;BME280;18697;42.770;23.400;2022-08-01T02:57:34;95444.03;;;23.16;55.51
32197;BME280;18697;42.770;23.400;2022-08-01T03:00:03;95435.34;;;23.14;54.92
32197;BME280;18697;42.770;23.400;2022-08-01T03:02:30;95441.91;;;23.09;55.43
32197;BME280;18697;42.770;23.400;2022-08-01T03:04:57;95453.00;;;23.07;54.78
32197;BME280;18697;42.770;23.400;2022-08-01T03:07:24;95451.03;;;22.94;55.12
32197;BME280;18697;42.770;23.400;2022-08-01T03:09:51;95448.81;;;23.01;55.50
32197;BME280;18697;42.770;23.400;2022-08-01T03:12:20;95448.53;;;22.91;56.09
32197;BME280;18697;42.770;23.400;2022-08-01T03:14:49;95441.44;;;22.98;56.35
32197;BME280;18697;42.770;23.400;2022-08-01T03:17:18;95456.94;;;23.04;55.79
32197;BME280;18697;42.770;23.400;2022-08-01T03:19:46;95449.09;;;23.10;55.39
32197;BME280;18697;42.770;23.400;2022-08-01T03:22:13;95460.63;;;23.12;55.53
32197;BME280;18697;42.770;23.400;2022-08-01T03:24:41;95447.63;;;23.17;54.98
32197;BME280;18697;42.770;23.400;2022-08-01T03:27:08;95452.53;;;23.16;55.03
32197;BME280;18697;42.770;23.400;2022-08-01T03:29:34;95442.38;;;23.21;55.21
32197;BME280;18697;42.770;23.400;2022-08-01T03:32:01;95448.53;;;23.33;54.65
32197;BME280;18697;42.770;23.400;2022-08-01T03:34:28;95446.03;;;23.29;54.87
32197;BME280;18697;42.770;23.400;2022-08-01T03:37:17;95456.81;;;23.31;54.87
32197;BME280;18697;42.770;23.400;2022-08-01T03:39:52;95454.59;;;23.37;54.86
32197;BME280;18697;42.770;23.400;2022-08-01T03:42:22;95458.22;;;23.37;55.26
32197;BME280;18697;42.770;23.400;2022-08-01T03:44:59;95458.81;;;23.43;55.33
32197;BME280;18697;42.770;23.400;2022-08-01T03:47:30;95465.09;;;23.49;55.01
32197;BME280;18697;42.770;23.400;2022-08-01T03:49:57;95462.38;;;23.57;54.65
32197;BME280;18697;42.770;23.400;2022-08-01T03:52:25;95463.03;;;23.71;54.87
32197;BME280;18697;42.770;23.400;2022-08-01T03:54:53;95467.94;;;23.70;54.39
32197;BME280;18697;42.770;23.400;2022-08-01T03:57:20;95465.13;;;23.70;57.78
32197;BME280;18697;42.770;23.400;2022-08-01T03:59:46;95468.66;;;23.91;58.22
32197;BME280;18697;42.770;23.400;2022-08-01T04:02:13;95466.41;;;23.98;56.11
32197;BME280;18697;42.770;23.400;2022-08-01T04:04:40;95461.50;;;23.98;54.95
32197;BME280;18697;42.770;23.400;2022-08-01T04:07:21;95470.66;;;24.12;54.25
32197;BME280;18697;42.770;23.400;2022-08-01T04:09:46;95468.19;;;24.08;54.10
32197;BME280;18697;42.770;23.400;2022-08-01T04:12:12;95468.34;;;24.03;53.74
32197;BME280;18697;42.770;23.400;2022-08-01T04:14:38;95459.13;;;23.81;54.45
32197;BME280;18697;42.770;23.400;2022-08-01T04:17:03;95472.38;;;23.16;53.69
32197;BME280;18697;42.770;23.400;2022-08-01T04:19:29;95471.66;;;23.03;56.90
32197;BME280;18697;42.770;23.400;2022-08-01T04:21:55;95463.09;;;23.16;56.05
32197;BME280;18697;42.770;23.400;2022-08-01T04:24:22;95470.03;;;23.28;55.68
32197;BME280;18697;42.770;23.400;2022-08-01T04:26:50;95477.00;;;23.27;55.60
32197;BME280;18697;42.770;23.400;2022-08-01T04:29:17;95476.31;;;23.34;55.35
32197;BME280;18697;42.770;23.400;2022-08-01T04:31:46;95477.06;;;23.35;55.19
32197;BME280;18697;42.770;23.400;2022-08-01T04:34:16;95481.34;;;23.49;54.67
32197;BME280;18697;42.770;23.400;2022-08-01T04:36:43;95475.47;;;23.47;54.44
32197;BME280;18697;42.770;23.400;2022-08-01T04:39:11;95465.66;;;23.48;54.25
32197;BME280;18697;42.770;23.400;2022-08-01T04:41:38;95467.81;;;23.34;54.43
32197;BME280;18697;42.770;23.400;2022-08-01T04:44:04;95465.19;;;23.36;54.28
32197;BME280;18697;42.770;23.400;2022-08-01T04:46:31;95468.38;;;23.33;54.16
32197;BME280;18697;42.770;23.400;2022-08-01T04:48:59;95477.34;;;23.44;53.93
32197;BME280;18697;42.770;23.400;2022-08-01T04:51:25;95472.03;;;23.41;53.49
32197;BME280;18697;42.770;23.400;2022-08-01T04:53:51;95473.53;;;23.42;53.52
32197;BME280;18697;42.770;23.400;2022-08-01T04:56:18;95477.91;;;23.43;53.24
32197;BME280;18697;42.770;23.400;2022-08-01T04:58:44;95479.28;;;23.49;53.20
32197;BME280;18697;42.770;23.400;2022-08-01T05:01:10;95476.75;;;23.59;52.84
32197;BME280;18697;42.770;23.400;2022-08-01T05:03:36;95469.34;;;23.56;53.51
32197;BME280;18697;42.770;23.400;2022-08-01T05:06:02;95461.25;;;23.60;53.06
32197;BME280;18697;42.770;23.400;2022-08-01T05:08:27;95468.28;;;23.46;53.10
32197;BME280;18697;42.770;23.400;2022-08-01T05:10:53;95464.25;;;23.54;53.35
32197;BME280;18697;42.770;23.400;2022-08-01T05:13:19;95465.19;;;23.15;53.24
32197;BME280;18697;42.770;23.400;2022-08-01T05:15:44;95458.00;;;23.14;53.92
32197;BME280;18697;42.770;23.400;2022-08-01T05:18:10;95445.00;;;23.19;53.79
32197;BME280;18697;42.770;23.400;2022-08-01T05:20:36;95466.28;;;22.91;54.39
32197;BME280;18697;42.770;23.400;2022-08-01T05:23:05;95464.09;;;22.98;54.69
32197;BME280;18697;42.770;23.400;2022-08-01T05:25:31;95456.59;;;23.08;54.27
32197;BME280;18697;42.770;23.400;2022-08-01T05:27:56;95465.81;;;23.21;53.91
32197;BME280;18697;42.770;23.400;2022-08-01T05:30:21;95458.91;;;23.30;54.25
32197;BME280;18697;42.770;23.400;2022-08-01T05:32:47;95452.53;;;23.37;53.71
32197;BME280;18697;42.770;23.400;2022-08-01T05:35:12;95455.44;;;23.45;53.84
32197;BME280;18697;42.770;23.400;2022-08-01T05:37:37;95465.09;;;23.49;53.87
32197;BME280;18697;42.770;23.400;2022-08-01T05:40:04;95453.56;;;23.47;54.34
32197;BME280;18697;42.770;23.400;2022-08-01T05:42:29;95449.16;;;23.39;53.87
32197;BME280;18697;42.770;23.400;2022-08-01T05:44:55;95460.69;;;23.41;53.79
32197;BME280;18697;42.770;23.400;2022-08-01T05:47:20;95456.47;;;23.34;54.22
32197;BME280;18697;42.770;23.400;2022-08-01T05:49:46;95453.44;;;23.32;54.04
32197;BME280;18697;42.770;23.400;2022-08-01T05:52:11;95458.06;;;23.43;53.85
32197;BME280;18697;42.770;23.400;2022-08-01T05:54:37;95461.25;;;23.39;53.20
32197;BME280;18697;42.770;23.400;2022-08-01T05:57:03;95461.38;;;23.34;53.60
32197;BME280;18697;42.770;23.400;2022-08-01T05:59:29;95458.81;;;23.22;53.74
32197;BME280;18697;42.770;23.400;2022-08-01T06:01:54;95458.97;;;23.17;51.94
32197;BME280;18697;42.770;23.400;2022-08-01T06:04:20;95470.22;;;23.09;53.00
32197;BME280;18697;42.770;23.400;2022-08-01T06:06:45;95456.56;;;23.00;52.75
32197;BME280;18697;42.770;23.400;2022-08-01T06:09:11;95452.22;;;22.99;53.29
32197;BME280;18697;42.770;23.400;2022-08-01T06:11:36;95461.38;;;23.13;53.45
32197;BME280;18697;42.770;23.400;2022-08-01T06:14:01;95448.09;;;23.08;51.67
32197;BME280;18697;42.770;23.400;2022-08-01T06:16:27;95458.47;;;23.05;51.62
32197;BME280;18697;42.770;23.400;2022-08-01T06:18:52;95455.16;;;23.14;52.36
32197;BME280;18697;42.770;23.400;2022-08-01T06:21:18;95451.69;;;23.08;51.69
32197;BME280;18697;42.770;23.400;2022-08-01T06:23:43;95453.97;;;23.10;50.67
32197;BME280;18697;42.770;23.400;2022-08-01T06:26:09;95444.72;;;23.09;51.31
32197;BME280;18697;42.770;23.400;2022-08-01T06:28:35;95440.66;;;22.97;51.67
32197;BME280;18697;42.770;23.400;2022-08-01T06:31:01;95441.91;;;23.09;50.59
32197;BME280;18697;42.770;23.400;2022-08-01T06:33:26;95448.94;;;23.37;51.75
32197;BME280;18697;42.770;23.400;2022-08-01T06:35:52;95444.50;;;23.49;50.27
32197;BME280;18697;42.770;23.400;2022-08-01T06:38:17;95440.16;;;23.48;49.48
32197;BME280;18697;42.770;23.400;2022-08-01T06:40:43;95436.41;;;23.53;49.17
32197;BME280;18697;42.770;23.400;2022-08-01T06:43:08;95438.16;;;23.56;50.33
32197;BME280;18697;42.770;23.400;2022-08-01T06:45:35;95435.94;;;23.62;49.14
32197;BME280;18697;42.770;23.400;2022-08-01T06:48:01;95436.63;;;23.83;49.75
32197;BME280;18697;42.770;23.400;2022-08-01T06:50:27;95417.00;;;23.85;48.07
32197;BME280;18697;42.770;23.400;2022-08-01T06:52:53;95422.75;;;24.01;48.07
32197;BME280;18697;42.770;23.400;2022-08-01T06:55:18;95418.25;;;24.05;47.78
32197;BME280;18697;42.770;23.400;2022-08-01T06:57:49;95417.13;;;24.08;47.97
32197;BME280;18697;42.770;23.400;2022-08-01T07:00:15;95416.88;;;24.27;48.42
32197;BME280;18697;42.770;23.400;2022-08-01T07:02:44;95417.09;;;24.37;46.39
32197;BME280;18697;42.770;23.400;2022-08-01T07:05:09;95407.22;;;24.30;46.00
32197;BME280;18697;42.770;23.400;2022-08-01T07:07:35;95399.28;;;24.29;46.44
32197;BME280;18697;42.770;23.400;2022-08-01T07:10:00;95409.72;;;24.41;45.63
32197;BME280;18697;42.770;23.400;2022-08-01T07:12:25;95418.84;;;24.55;45.65
32197;BME280;18697;42.770;23.400;2022-08-01T07:14:51;95410.53;;;24.49;44.32
32197;BME280;18697;42.770;23.400;2022-08-01T07:17:16;95414.88;;;24.58;45.35
32197;BME280;18697;42.770;23.400;2022-08-01T07:19:42;95421.50;;;24.61;45.06
32197;BME280;18697;42.770;23.400;2022-08-01T07:22:07;95412.66;;;24.72;45.44
32197;BME280;18697;42.770;23.400;2022-08-01T07:24:32;95407.34;;;24.76;45.25
32197;BME280;18697;42.770;23.400;2022-08-01T07:26:58;95415.66;;;24.66;44.88
32197;BME280;18697;42.770;23.400;2022-08-01T07:29:24;95411.16;;;24.86;44.66
32197;BME280;18697;42.770;23.400;2022-08-01T07:31:55;95404.91;;;24.87;44.78
32197;BME280;18697;42.770;23.400;2022-08-01T07:34:21;95406.81;;;24.85;43.40
32197;BME280;18697;42.770;23.400;2022-08-01T07:36:47;95405.69;;;24.88;43.41
32197;BME280;18697;42.770;23.400;2022-08-01T07:39:12;95408.94;;;25.00;43.62
32197;BME280;18697;42.770;23.400;2022-08-01T07:41:38;95409.72;;;25.08;43.52
32197;BME280;18697;42.770;23.400;2022-08-01T07:44:03;95409.34;;;25.19;43.67
32197;BME280;18697;42.770;23.400;2022-08-01T07:46:29;95411.59;;;25.36;44.01
32197;BME280;18697;42.770;23.400;2022-08-01T07:48:56;95402.69;;;25.32;42.72
32197;BME280;18697;42.770;23.400;2022-08-01T07:51:21;95405.72;;;25.41;42.96
32197;BME280;18697;42.770;23.400;2022-08-01T07:53:47;95397.97;;;25.49;42.42
32197;BME280;18697;42.770;23.400;2022-08-01T07:56:12;95402.13;;;25.56;42.64
32197;BME280;18697;42.770;23.400;2022-08-01T07:58:37;95402.50;;;25.60;42.58
32197;BME280;18697;42.770;23.400;2022-08-01T08:01:03;95389.63;;;25.67;41.96
32197;BME280;18697;42.770;23.400;2022-08-01T08:03:28;95399.47;;;25.81;42.10
32197;BME280;18697;42.770;23.400;2022-08-01T08:05:54;95403.78;;;25.97;42.36
32197;BME280;18697;42.770;23.400;2022-08-01T08:08:19;95406.06;;;25.99;41.23
32197;BME280;18697;42.770;23.400;2022-08-01T08:10:44;95411.50;;;26.12;40.43
32197;BME280;18697;42.770;23.400;2022-08-01T08:13:10;95406.56;;;26.20;40.33
32197;BME280;18697;42.770;23.400;2022-08-01T08:15:35;95398.75;;;26.36;40.81
32197;BME280;18697;42.770;23.400;2022-08-01T08:18:03;95403.09;;;26.29;39.67
32197;BME280;18697;42.770;23.400;2022-08-01T08:20:28;95396.47;;;26.27;40.72
32197;BME280;18697;42.770;23.400;2022-08-01T08:22:55;95405.38;;;26.31;39.71
32197;BME280;18697;42.770;23.400;2022-08-01T08:25:21;95400.38;;;26.54;39.79
32197;BME280;18697;42.770;23.400;2022-08-01T08:27:47;95404.53;;;26.61;39.55
32197;BME280;18697;42.770;23.400;2022-08-01T08:30:13;95406.75;;;26.70;40.03
32197;BME280;18697;42.770;23.400;2022-08-01T08:32:39;95406.25;;;26.89;39.49
32197;BME280;18697;42.770;23.400;2022-08-01T08:35:05;95403.00;;;26.92;39.08
32197;BME280;18697;42.770;23.400;2022-08-01T08:37:31;95404.88;;;26.97;38.24
32197;BME280;18697;42.770;23.400;2022-08-01T08:39:56;95395.06;;;26.83;38.43
32197;BME280;18697;42.770;23.400;2022-08-01T08:42:22;95409.63;;;26.95;38.99
32197;BME280;18697;42.770;23.400;2022-08-01T08:44:47;95395.78;;;26.91;39.56
32197;BME280;18697;42.770;23.400;2022-08-01T08:47:14;95397.06;;;27.05;39.43
32197;BME280;18697;42.770;23.400;2022-08-01T08:49:43;95395.19;;;27.00;38.39
32197;BME280;18697;42.770;23.400;2022-08-01T08:52:09;95394.81;;;26.96;39.13
32197;BME280;18697;42.770;23.400;2022-08-01T08:54:38;95399.38;;;26.99;38.57
32197;BME280;18697;42.770;23.400;2022-08-01T08:57:04;95386.81;;;26.95;38.85
32197;BME280;18697;42.770;23.400;2022-08-01T08:59:30;95390.09;;;26.91;39.61
32197;BME280;18697;42.770;23.400;2022-08-01T09:01:57;95377.94;;;26.91;38.27
32197;BME280;18697;42.770;23.400;2022-08-01T09:04:23;95388.16;;;27.01;38.92
32197;BME280;18697;42.770;23.400;2022-08-01T09:06:48;95376.75;;;27.01;39.42
32197;BME280;18697;42.770;23.400;2022-08-01T09:09:14;95374.53;;;27.17;39.36
32197;BME280;18697;42.770;23.400;2022-08-01T09:11:39;95376.34;;;27.30;38.11
32197;BME280;18697;42.770;23.400;2022-08-01T09:14:13;95365.34;;;27.26;39.24
32197;BME280;18697;42.770;23.400;2022-08-01T09:16:44;95365.28;;;27.34;39.06
32197;BME280;18697;42.770;23.400;2022-08-01T09:19:19;95369.19;;;27.46;39.70
32197;BME280;18697;42.770;23.400;2022-08-01T09:21:59;95372.84;;;27.56;37.56
32197;BME280;18697;42.770;23.400;2022-08-01T09:24:29;95363.38;;;27.54;38.02
32197;BME280;18697;42.770;23.400;2022-08-01T09:26:55;95366.44;;;27.31;37.82
32197;BME280;18697;42.770;23.400;2022-08-01T09:29:29;95372.25;;;27.40;38.26
32197;BME280;18697;42.770;23.400;2022-08-01T09:31:55;95353.91;;;27.51;37.07
32197;BME280;18697;42.770;23.400;2022-08-01T09:34:28;95359.34;;;27.57;37.01
32197;BME280;18697;42.770;23.400;2022-08-01T09:36:58;95351.09;;;27.26;39.33
32197;BME280;18697;42.770;23.400;2022-08-01T09:39:35;95360.63;;;27.46;38.51
32197;BME280;18697;42.770;23.400;2022-08-01T09:42:19;95352.31;;;27.40;37.85
32197;BME280;18697;42.770;23.400;2022-08-01T09:44:45;95352.66;;;27.44;38.71
32197;BME280;18697;42.770;23.400;2022-08-01T09:47:12;95349.75;;;27.69;37.54
32197;BME280;18697;42.770;23.400;2022-08-01T09:49:39;95355.06;;;27.90;38.05
32197;BME280;18697;42.770;23.400;2022-08-01T09:52:18;95369.16;;;28.05;37.44
32197;BME280;18697;42.770;23.400;2022-08-01T09:54:52;95367.72;;;28.31;37.44
32197;BME280;18697;42.770;23.400;2022-08-01T09:57:19;95364.88;;;28.14;36.06
32197;BME280;18697;42.770;23.400;2022-08-01T09:59:54;95362.09;;;27.89;36.31
32197;BME280;18697;42.770;23.400;2022-08-01T10:02:46;95357.09;;;27.55;36.48
32197;BME280;18697;42.770;23.400;2022-08-01T10:05:11;95358.75;;;27.41;36.77
32197;BME280;18697;42.770;23.400;2022-08-01T10:07:56;95359.72;;;27.61;38.34
32197;BME280;18697;42.770;23.400;2022-08-01T10:10:22;95362.19;;;27.81;38.04
32197;BME280;18697;42.770;23.400;2022-08-01T10:12:48;95350.94;;;27.84;36.01
32197;BME280;18697;42.770;23.400;2022-08-01T10:15:15;95359.25;;;27.72;37.50
32197;BME280;18697;42.770;23.400;2022-08-01T10:17:46;95353.69;;;27.74;36.25
32197;BME280;18697;42.770;23.400;2022-08-01T10:20:12;95355.28;;;27.25;36.78
32197;BME280;18697;42.770;23.400;2022-08-01T10:22:38;95359.53;;;26.84;38.19
32197;BME280;18697;42.770;23.400;2022-08-01T10:25:04;95335.53;;;26.37;38.27
32197;BME280;18697;42.770;23.400;2022-08-01T10:27:32;95344.44;;;26.74;39.58
32197;BME280;18697;42.770;23.400;2022-08-01T10:30:00;95332.31;;;27.23;37.71
32197;BME280;18697;42.770;23.400;2022-08-01T10:32:29;95336.03;;;27.08;38.07
32197;BME280;18697;42.770;23.400;2022-08-01T10:34:55;95339.94;;;27.63;38.04
32197;BME280;18697;42.770;23.400;2022-08-01T10:37:22;95335.91;;;28.00;38.26
32197;BME280;18697;42.770;23.400;2022-08-01T10:39:47;95315.44;;;28.11;36.13
32197;BME280;18697;42.770;23.400;2022-08-01T10:42:13;95327.00;;;28.13;37.43
32197;BME280;18697;42.770;23.400;2022-08-01T10:44:39;95325.22;;;28.35;37.41
32197;BME280;18697;42.770;23.400;2022-08-01T10:47:11;95322.91;;;28.51;37.34
32197;BME280;18697;42.770;23.400;2022-08-01T10:50:17;95322.38;;;28.62;36.26
32197;BME280;18697;42.770;23.400;2022-08-01T10:53:05;95319.63;;;28.82;36.13
32197;BME280;18697;42.770;23.400;2022-08-01T10:55:45;95324.25;;;29.04;36.70
32197;BME280;18697;42.770;23.400;2022-08-01T10:58:10;95324.78;;;28.83;36.12
32197;BME280;18697;42.770;23.400;2022-08-01T11:00:36;95318.50;;;28.94;37.30
32197;BME280;18697;42.770;23.400;2022-08-01T11:03:02;95304.06;;;29.02;34.98
32197;BME280;18697;42.770;23.400;2022-08-01T11:05:33;95316.13;;;28.73;37.18
32197;BME280;18697;42.770;23.400;2022-08-01T11:08:06;95312.22;;;29.05;35.95
32197;BME280;18697;42.770;23.400;2022-08-01T11:10:40;95311.66;;;29.17;35.92
32197;BME280;18697;42.770;23.400;2022-08-01T11:13:08;95309.16;;;29.40;36.05
32197;BME280;18697;42.770;23.400;2022-08-01T11:15:37;95312.09;;;29.59;35.00
32197;BME280;18697;42.770;23.400;2022-08-01T11:20:58;95315.25;;;29.83;34.71
32197;BME280;18697;42.770;23.400;2022-08-01T11:23:25;95316.59;;;29.82;34.67
32197;BME280;18697;42.770;23.400;2022-08-01T11:28:23;95307.13;;;29.98;34.42
32197;BME280;18697;42.770;23.400;2022-08-01T11:33:17;95308.75;;;29.53;34.76
32197;BME280;18697;42.770;23.400;2022-08-01T11:41:30;95307.41;;;29.83;34.27
32197;BME280;18697;42.770;23.400;2022-08-01T11:44:07;95293.56;;;29.89;33.87
32197;BME280;18697;42.770;23.400;2022-08-01T11:52:14;95290.25;;;29.54;34.75
32197;BME280;18697;42.770;23.400;2022-08-01T11:54:44;95288.28;;;29.47;34.58
32197;BME280;18697;42.770;23.400;2022-08-01T11:57:14;95297.94;;;29.71;35.43
32197;BME280;18697;42.770;23.400;2022-08-01T11:59:45;95295.06;;;29.90;34.98
32197;BME280;18697;42.770;23.400;2022-08-01T12:02:23;95288.28;;;29.95;33.80
32197;BME280;18697;42.770;23.400;2022-08-01T12:07:18;95289.78;;;28.92;35.45
32197;BME280;18697;42.770;23.400;2022-08-01T12:09:44;95285.13;;;28.70;35.59
32197;BME280;18697;42.770;23.400;2022-08-01T12:12:12;95292.22;;;28.25;36.93
32197;BME280;18697;42.770;23.400;2022-08-01T12:14:39;95287.75;;;28.31;36.61
32197;BME280;18697;42.770;23.400;2022-08-01T12:17:05;95286.25;;;28.57;37.07
32197;BME280;18697;42.770;23.400;2022-08-01T12:19:30;95284.91;;;28.85;36.09
32197;BME280;18697;42.770;23.400;2022-08-01T12:22:09;95287.84;;;29.14;37.05
32197;BME280;18697;42.770;23.400;2022-08-01T12:24:36;95282.28;;;29.06;36.07
32197;BME280;18697;42.770;23.400;2022-08-01T12:27:03;95280.75;;;29.05;37.39
32197;BME280;18697;42.770;23.400;2022-08-01T12:29:40;95269.75;;;29.02;35.64
32197;BME280;18697;42.770;23.400;2022-08-01T12:32:26;95281.78;;;29.00;36.15
32197;BME280;18697;42.770;23.400;2022-08-01T12:34:53;95289.78;;;28.92;36.31
32197;BME280;18697;42.770;23.400;2022-08-01T12:37:20;95288.25;;;28.91;36.31
32197;BME280;18697;42.770;23.400;2022-08-01T12:39:46;95283.75;;;28.98;37.08
32197;BME280;18697;42.770;23.400;2022-08-01T12:42:12;95283.25;;;28.82;36.50
32197;BME280;18697;42.770;23.400;2022-08-01T12:44:38;95282.31;;;28.79;36.14
32197;BME280;18697;42.770;23.400;2022-08-01T12:47:08;95287.13;;;28.77;37.04
32197;BME280;18697;42.770;23.400;2022-08-01T12:49:36;95278.59;;;28.33;36.92
32197;BME280;18697;42.770;23.400;2022-08-01T12:52:03;95276.44;;;28.24;36.98
32197;BME280;18697;42.770;23.400;2022-08-01T12:54:28;95277.31;;;27.99;37.89
32197;BME280;18697;42.770;23.400;2022-08-01T12:56:54;95270.38;;;27.75;38.27
32197;BME280;18697;42.770;23.400;2022-08-01T12:59:27;95279.94;;;27.88;38.41
32197;BME280;18697;42.770;23.400;2022-08-01T13:01:53;95270.88;;;27.64;37.88
32197;BME280;18697;42.770;23.400;2022-08-01T13:04:21;95286.13;;;27.42;38.32
32197;BME280;18697;42.770;23.400;2022-08-01T13:06:47;95283.19;;;27.32;39.28
32197;BME280;18697;42.770;23.400;2022-08-01T13:09:13;95287.13;;;27.37;38.43
32197;BME280;18697;42.770;23.400;2022-08-01T13:11:42;95272.63;;;27.42;38.75
32197;BME280;18697;42.770;23.400;2022-08-01T13:14:08;95275.75;;;26.87;39.26
32197;BME280;18697;42.770;23.400;2022-08-01T13:16:46;95274.94;;;26.94;39.49
32197;BME280;18697;42.770;23.400;2022-08-01T13:19:11;95267.34;;;26.97;38.76
32197;BME280;18697;42.770;23.400;2022-08-01T13:21:37;95272.47;;;26.98;39.37
32197;BME280;18697;42.770;23.400;2022-08-01T13:24:06;95270.91;;;27.05;39.59
32197;BME280;18697;42.770;23.400;2022-08-01T13:29:12;95274.53;;;27.57;39.38
32197;BME280;18697;42.770;23.400;2022-08-01T13:31:39;95277.19;;;27.63;38.48